Time;durP1;ratioP1;P1;durP2;ratioP2;P2;SDS_P1;SDS_P2;PMS_P1;PMS_P2;Temp;Humidity;BMP_temperature;BMP_pressure;BME280_temperature;BME280_humidity;BME280_pressure;Samples;Min_cycle;Max_cycle;Signal;HPM_P1;HPM_P2
2021/03/17 00:00:47;;;;;;;5.88;3.25;;;;;;;;;;4979489;28;20038;-81
2021/03/17 00:03:14;;;;;;;9.80;3.63;;;;;;;;;;4979981;28;20019;-80
2021/03/17 00:05:41;;;;;;;8.02;3.78;;;;;;;;;;4979603;28;20030;-81
2021/03/17 00:08:07;;;;;;;12.38;3.95;;;;;;;;;;4978109;28;20574;-80
2021/03/17 00:10:35;;;;;;;7.43;3.45;;;;;;;;;;4978106;28;20031;-81
2021/03/17 00:13:02;;;;;;;9.18;4.20;;;;;;;;;;4977877;28;20053;-81
2021/03/17 00:15:30;;;;;;;6.65;3.40;;;;;;;;;;4978636;28;20117;-81
2021/03/17 00:17:57;;;;;;;8.95;3.38;;;;;;;;;;4977960;28;20480;-81
2021/03/17 00:20:24;;;;;;;6.43;3.15;;;;;;;;;;4977860;28;20073;-80
2021/03/17 00:22:50;;;;;;;8.48;3.55;;;;;;;;;;4979069;28;20102;-81
2021/03/17 00:25:18;;;;;;;6.63;3.65;;;;;;;;;;4979377;28;20050;-80
2021/03/17 00:27:44;;;;;;;6.35;3.53;;;;;;;;;;4978811;28;20364;-80
2021/03/17 00:30:11;;;;;;;7.68;3.78;;;;;;;;;;4977087;28;20499;-81
2021/03/17 00:32:37;;;;;;;9.27;3.67;;;;;;;;;;4978987;28;20031;-80
2021/03/17 00:35:04;;;;;;;7.03;3.20;;;;;;;;;;4978989;28;20149;-80
2021/03/17 00:37:30;;;;;;;7.55;3.67;;;;;;;;;;4977695;28;20123;-81
2021/03/17 00:39:56;;;;;;;7.53;3.80;;;;;;;;;;4977463;28;20035;-81
2021/03/17 00:42:22;;;;;;;9.10;3.58;;;;;;;;;;4977593;28;20070;-80
2021/03/17 00:44:48;;;;;;;6.43;3.90;;;;;;;;;;4980558;28;20037;-80
2021/03/17 00:47:14;;;;;;;9.32;4.38;;;;;;;;;;4997150;28;20109;-80
2021/03/17 00:49:40;;;;;;;9.80;4.43;;;;;;;;;;4980566;28;20121;-81
2021/03/17 00:52:06;;;;;;;10.35;4.28;;;;;;;;;;4977633;28;20023;-80
2021/03/17 00:54:32;;;;;;;7.20;3.83;;;;;;;;;;4979928;28;20026;-81
2021/03/17 00:56:58;;;;;;;7.63;3.80;;;;;;;;;;4976281;28;20011;-79
2021/03/17 00:59:25;;;;;;;6.95;3.75;;;;;;;;;;4977129;28;20024;-80
2021/03/17 01:01:51;;;;;;;9.10;3.92;;;;;;;;;;4976564;28;20031;-83
2021/03/17 01:04:17;;;;;;;8.10;4.25;;;;;;;;;;4976929;28;20114;-82
2021/03/17 01:06:43;;;;;;;11.13;4.80;;;;;;;;;;4977187;28;20192;-81
2021/03/17 01:09:09;;;;;;;8.68;4.43;;;;;;;;;;4977214;28;20031;-82
2021/03/17 01:11:36;;;;;;;9.93;3.63;;;;;;;;;;4978348;28;20039;-82
2021/03/17 01:14:02;;;;;;;11.50;4.55;;;;;;;;;;4980647;28;20031;-82
2021/03/17 01:16:28;;;;;;;9.40;4.53;;;;;;;;;;4976357;28;20081;-82
2021/03/17 01:18:54;;;;;;;8.10;3.88;;;;;;;;;;4976560;28;20035;-82
2021/03/17 01:21:21;;;;;;;7.78;4.07;;;;;;;;;;4978076;28;20034;-81
2021/03/17 01:23:47;;;;;;;12.93;4.85;;;;;;;;;;4977004;28;20041;-82
2021/03/17 01:26:13;;;;;;;7.45;3.58;;;;;;;;;;4977769;28;20062;-82
2021/03/17 01:28:41;;;;;;;9.05;3.55;;;;;;;;;;4976700;28;20023;-82
2021/03/17 01:31:07;;;;;;;9.65;3.92;;;;;;;;;;4976809;28;20030;-81
2021/03/17 01:33:33;;;;;;;8.38;4.07;;;;;;;;;;4977141;28;20031;-83
2021/03/17 01:36:00;;;;;;;10.10;4.28;;;;;;;;;;4976624;28;20081;-82
2021/03/17 01:38:26;;;;;;;8.27;4.63;;;;;;;;;;4976641;28;20038;-82
2021/03/17 01:40:53;;;;;;;9.45;4.43;;;;;;;;;;4978462;28;20085;-82
2021/03/17 01:43:19;;;;;;;10.80;4.13;;;;;;;;;;4976484;28;20115;-82
2021/03/17 01:45:45;;;;;;;9.45;4.90;;;;;;;;;;4977716;28;20037;-82
2021/03/17 01:48:12;;;;;;;8.57;4.15;;;;;;;;;;4977157;28;20027;-81
2021/03/17 01:51:05;;;;;;;10.07;4.65;;;;;;;;;;4976478;28;20368;-82
2021/03/17 01:53:32;;;;;;;11.10;5.47;;;;;;;;;;4975853;28;20034;-81
2021/03/17 01:56:00;;;;;;;9.25;4.38;;;;;;;;;;4975625;28;20042;-81
2021/03/17 01:58:27;;;;;;;10.45;4.20;;;;;;;;;;4976116;28;20077;-82
2021/03/17 02:00:54;;;;;;;11.55;4.72;;;;;;;;;;4977559;28;20480;-82
2021/03/17 02:03:20;;;;;;;12.23;5.55;;;;;;;;;;4977458;28;20054;-81
2021/03/17 02:05:49;;;;;;;9.70;4.63;;;;;;;;;;4977423;28;20027;-82
2021/03/17 02:08:17;;;;;;;9.32;4.72;;;;;;;;;;4976136;28;20066;-82
2021/03/17 02:10:44;;;;;;;12.93;5.35;;;;;;;;;;4977136;28;20037;-82
2021/03/17 02:13:15;;;;;;;9.13;4.25;;;;;;;;;;4976500;28;20034;-82
2021/03/17 02:15:53;;;;;;;8.45;4.43;;;;;;;;;;4975410;28;20045;-81
2021/03/17 02:18:40;;;;;;;12.18;4.47;;;;;;;;;;4977241;28;20426;-82
2021/03/17 02:21:12;;;;;;;10.73;4.45;;;;;;;;;;4968539;28;20476;-84
2021/03/17 02:23:47;;;;;;;11.80;4.93;;;;;;;;;;4975826;28;20034;-84
2021/03/17 02:26:32;;;;;;;11.25;4.25;;;;;;;;;;4975583;28;20047;-82
2021/03/17 02:29:13;;;;;;;11.43;4.97;;;;;;;;;;4975446;28;20033;-80
2021/03/17 02:31:39;;;;;;;8.18;4.35;;;;;;;;;;4976747;28;20429;-82
2021/03/17 02:34:05;;;;;;;10.95;4.75;;;;;;;;;;4977278;28;20018;-79
2021/03/17 02:36:37;;;;;;;9.52;5.00;;;;;;;;;;4975241;28;20542;-81
2021/03/17 02:39:15;;;;;;;7.35;3.03;;;;;;;;;;4983903;28;20105;-80
2021/03/17 02:41:42;;;;;;;8.55;3.92;;;;;;;;;;4982966;28;20038;-81
2021/03/17 02:44:11;;;;;;;12.77;4.22;;;;;;;;;;4977970;28;20058;-79
2021/03/17 02:46:39;;;;;;;14.15;5.03;;;;;;;;;;4989548;28;20038;-79
2021/03/17 02:49:06;;;;;;;9.13;4.30;;;;;;;;;;4978432;28;20026;-81
2021/03/17 02:51:43;;;;;;;8.27;4.28;;;;;;;;;;4977792;28;20026;-81
2021/03/17 02:54:10;;;;;;;9.52;4.95;;;;;;;;;;4977765;28;20026;-81
2021/03/17 02:56:40;;;;;;;14.90;4.88;;;;;;;;;;4978416;28;20026;-81
2021/03/17 02:59:07;;;;;;;12.32;5.80;;;;;;;;;;4995718;28;20031;-80
2021/03/17 03:01:34;;;;;;;9.13;4.65;;;;;;;;;;4978402;28;20045;-81
2021/03/17 03:04:00;;;;;;;12.98;5.80;;;;;;;;;;4996134;28;20367;-81
2021/03/17 03:06:27;;;;;;;14.10;5.03;;;;;;;;;;4978300;28;20026;-81
2021/03/17 03:08:54;;;;;;;12.00;5.78;;;;;;;;;;4995633;28;20375;-80
2021/03/17 03:11:21;;;;;;;13.25;5.53;;;;;;;;;;4995039;28;20368;-83
2021/03/17 03:13:48;;;;;;;11.93;5.07;;;;;;;;;;4978264;28;20522;-83
2021/03/17 03:16:16;;;;;;;12.10;5.75;;;;;;;;;;4995639;28;20539;-83
2021/03/17 03:18:43;;;;;;;16.33;5.53;;;;;;;;;;4995538;28;20028;-82
2021/03/17 03:21:10;;;;;;;11.75;5.03;;;;;;;;;;4978121;28;20037;-81
2021/03/17 03:23:37;;;;;;;16.58;6.15;;;;;;;;;;4995425;28;20030;-81
2021/03/17 03:26:04;;;;;;;14.48;6.30;;;;;;;;;;4974056;28;20055;-80
2021/03/17 03:28:31;;;;;;;15.48;6.32;;;;;;;;;;4974140;28;20030;-82
2021/03/17 03:30:58;;;;;;;16.83;6.63;;;;;;;;;;4976280;28;20039;-82
2021/03/17 03:33:24;;;;;;;12.90;6.28;;;;;;;;;;4974622;28;20027;-82
2021/03/17 03:35:51;;;;;;;8.65;4.00;;;;;;;;;;4974833;28;20122;-80
2021/03/17 03:38:18;;;;;;;10.88;4.88;;;;;;;;;;4974852;28;20057;-81
2021/03/17 03:40:44;;;;;;;12.27;4.85;;;;;;;;;;4974581;28;20042;-81
2021/03/17 03:43:11;;;;;;;12.00;5.10;;;;;;;;;;4974008;28;20054;-84
2021/03/17 03:45:39;;;;;;;13.45;5.03;;;;;;;;;;4974396;28;20495;-81
2021/03/17 03:48:05;;;;;;;9.52;4.85;;;;;;;;;;4975853;28;20495;-81
2021/03/17 03:50:34;;;;;;;11.95;5.32;;;;;;;;;;4975968;28;20506;-81
2021/03/17 03:53:09;;;;;;;9.57;5.13;;;;;;;;;;4974661;28;20502;-80
2021/03/17 03:55:41;;;;;;;10.07;4.47;;;;;;;;;;4974702;28;20503;-81
2021/03/17 03:58:09;;;;;;;15.10;5.32;;;;;;;;;;4975805;28;20093;-80
2021/03/17 04:00:36;;;;;;;9.05;4.28;;;;;;;;;;4975861;28;20035;-81
2021/03/17 04:03:03;;;;;;;12.25;4.85;;;;;;;;;;4976199;28;20482;-81
2021/03/17 04:05:34;;;;;;;14.30;5.43;;;;;;;;;;4975011;28;20035;-80
2021/03/17 04:08:03;;;;;;;11.50;5.47;;;;;;;;;;4975839;28;20022;-80
2021/03/17 04:10:30;;;;;;;13.73;5.15;;;;;;;;;;4974266;28;20031;-80
2021/03/17 04:12:57;;;;;;;12.98;6.07;;;;;;;;;;4977806;28;20026;-80
2021/03/17 04:15:23;;;;;;;13.63;4.75;;;;;;;;;;4976283;28;20065;-78
2021/03/17 04:17:57;;;;;;;11.45;5.53;;;;;;;;;;4975799;28;20061;-79
2021/03/17 04:20:23;;;;;;;;;;;;;;;;;;4974681;28;20039;-79
2021/03/17 04:22:50;;;;;;;12.70;5.35;;;;;;;;;;4975675;28;19905;-80
2021/03/17 04:25:18;;;;;;;11.60;5.70;;;;;;;;;;4982437;28;20411;-80
2021/03/17 04:27:45;;;;;;;16.90;5.20;;;;;;;;;;4995031;28;20491;-80
2021/03/17 04:30:12;;;;;;;14.68;5.82;;;;;;;;;;4977504;28;20023;-79
2021/03/17 04:32:40;;;;;;;12.77;5.68;;;;;;;;;;4977507;28;20030;-79
2021/03/17 04:35:07;;;;;;;13.57;6.00;;;;;;;;;;4977376;28;20475;-80
2021/03/17 04:37:34;;;;;;;12.77;5.45;;;;;;;;;;4995652;28;20414;-79
2021/03/17 04:40:00;;;;;;;12.93;7.13;;;;;;;;;;4980276;28;20454;-79
2021/03/17 04:42:27;;;;;;;20.20;5.90;;;;;;;;;;4997825;28;20026;-79
2021/03/17 04:44:54;;;;;;;15.70;6.25;;;;;;;;;;4980860;28;20026;-81
2021/03/17 04:47:20;;;;;;;15.00;5.97;;;;;;;;;;4999183;28;20060;-80
2021/03/17 04:49:47;;;;;;;15.35;6.00;;;;;;;;;;4998291;28;20038;-80
2021/03/17 04:52:14;;;;;;;14.27;6.38;;;;;;;;;;4997924;28;20031;-82
2021/03/17 04:54:40;;;;;;;19.50;6.90;;;;;;;;;;4980726;28;20383;-81
2021/03/17 04:57:07;;;;;;;13.45;6.07;;;;;;;;;;4997300;28;20069;-80
2021/03/17 04:59:35;;;;;;;15.55;6.97;;;;;;;;;;4997898;28;20066;-82
2021/03/17 05:02:02;;;;;;;14.70;6.32;;;;;;;;;;4980546;28;20030;-81
2021/03/17 05:04:29;;;;;;;13.25;6.40;;;;;;;;;;4997782;28;20061;-79
2021/03/17 05:06:56;;;;;;;17.38;6.65;;;;;;;;;;4980445;28;20027;-80
2021/03/17 05:09:22;;;;;;;12.98;6.03;;;;;;;;;;4998034;28;20443;-81
2021/03/17 05:11:49;;;;;;;22.67;8.00;;;;;;;;;;4980637;28;20026;-81
2021/03/17 05:14:16;;;;;;;18.75;7.75;;;;;;;;;;4979738;28;20160;-82
2021/03/17 05:16:42;;;;;;;14.23;5.72;;;;;;;;;;4998809;28;20038;-81
2021/03/17 05:19:08;;;;;;;11.02;5.75;;;;;;;;;;4999213;28;20483;-79
2021/03/17 05:21:35;;;;;;;14.80;6.55;;;;;;;;;;4979909;28;20125;-81
2021/03/17 05:24:02;;;;;;;12.68;6.03;;;;;;;;;;4980023;28;20030;-81
2021/03/17 05:26:28;;;;;;;15.43;6.00;;;;;;;;;;4997284;28;20054;-79
2021/03/17 05:28:55;;;;;;;15.02;6.00;;;;;;;;;;4979449;28;20026;-80
2021/03/17 05:31:21;;;;;;;16.65;6.95;;;;;;;;;;4979414;28;20129;-78
2021/03/17 05:33:48;;;;;;;20.25;6.78;;;;;;;;;;4997508;28;20029;-79
2021/03/17 05:36:14;;;;;;;12.73;5.32;;;;;;;;;;4979730;28;20037;-79
2021/03/17 05:38:41;;;;;;;13.35;5.55;;;;;;;;;;4997217;28;20037;-77
2021/03/17 05:41:07;;;;;;;15.07;5.57;;;;;;;;;;4996920;28;20089;-79
2021/03/17 05:43:34;;;;;;;15.20;6.43;;;;;;;;;;4979595;28;20100;-79
2021/03/17 05:46:04;;;;;;;15.10;6.05;;;;;;;;;;4996851;28;20084;-78
2021/03/17 05:48:32;;;;;;;13.80;6.03;;;;;;;;;;4975995;28;20031;-79
2021/03/17 05:50:59;;;;;;;14.93;5.85;;;;;;;;;;4995469;28;20033;-79
2021/03/17 05:53:25;;;;;;;14.38;5.57;;;;;;;;;;4975597;28;20487;-80
2021/03/17 05:55:51;;;;;;;12.70;5.47;;;;;;;;;;4979478;28;20022;-79
2021/03/17 05:58:21;;;;;;;15.40;6.18;;;;;;;;;;4979389;28;20038;-79
2021/03/17 06:00:48;;;;;;;13.23;5.78;;;;;;;;;;4996991;28;20041;-89
2021/03/17 06:03:15;;;;;;;10.98;5.38;;;;;;;;;;4978639;28;20501;-80
2021/03/17 06:05:42;;;;;;;11.18;5.05;;;;;;;;;;4997257;28;20037;-84
2021/03/17 06:08:08;;;;;;;9.43;5.00;;;;;;;;;;4980425;28;20046;-87
2021/03/17 06:10:35;;;;;;;10.18;4.88;;;;;;;;;;4979923;28;20022;-83
2021/03/17 06:13:07;;;;;;;13.63;5.70;;;;;;;;;;4980601;28;20034;-87
2021/03/17 06:15:35;;;;;;;10.32;5.68;;;;;;;;;;4979438;28;20029;-91
2021/03/17 06:18:06;;;;;;;14.23;5.72;;;;;;;;;;4979570;28;20482;-88
2021/03/17 06:20:38;;;;;;;9.45;4.95;;;;;;;;;;4976058;28;20026;-82
2021/03/17 06:23:05;;;;;;;11.85;5.75;;;;;;;;;;4977570;28;20482;-83
2021/03/17 06:25:31;;;;;;;8.80;4.93;;;;;;;;;;4995963;28;20054;-85
2021/03/17 06:27:58;;;;;;;11.60;5.28;;;;;;;;;;4996661;28;20037;-77
2021/03/17 06:30:24;;;;;;;10.38;4.80;;;;;;;;;;4979237;28;20038;-76
2021/03/17 06:32:50;;;;;;;12.48;5.57;;;;;;;;;;4995090;28;20018;-78
2021/03/17 06:35:18;;;;;;;10.88;4.90;;;;;;;;;;4993978;28;20041;-76
2021/03/17 06:37:44;;;;;;;10.32;4.75;;;;;;;;;;4995431;28;20018;-77
2021/03/17 06:40:21;;;;;;;11.02;5.30;;;;;;;;;;4977419;28;20038;-76
2021/03/17 06:42:48;;;;;;;12.05;5.32;;;;;;;;;;4977393;28;20022;-77
2021/03/17 06:45:14;;;;;;;9.70;4.45;;;;;;;;;;4977898;28;20041;-77
2021/03/17 06:47:40;;;;;;;9.18;4.93;;;;;;;;;;4995968;28;20049;-81
2021/03/17 06:50:14;;;;;;;10.93;5.60;;;;;;;;;;4979176;28;20034;-79
2021/03/17 06:52:41;;;;;;;8.88;5.22;;;;;;;;;;4978073;28;20065;-77
2021/03/17 06:55:16;;;;;;;9.82;4.88;;;;;;;;;;4996303;28;20072;-77
2021/03/17 06:57:46;;;;;;;12.15;6.35;;;;;;;;;;4978596;28;20026;-78
2021/03/17 07:00:32;;;;;;;10.57;5.40;;;;;;;;;;4977997;28;20038;-78
2021/03/17 07:03:04;;;;;;;11.13;5.30;;;;;;;;;;4995718;28;20485;-78
2021/03/17 07:05:41;;;;;;;9.27;4.97;;;;;;;;;;4977972;28;20117;-78
2021/03/17 07:08:36;;;;;;;9.55;5.32;;;;;;;;;;4977673;28;20483;-77
2021/03/17 07:11:03;;;;;;;10.20;5.70;;;;;;;;;;4969616;28;20066;-78
2021/03/17 07:13:30;;;;;;;14.13;6.05;;;;;;;;;;4977107;28;20019;-78
2021/03/17 07:15:57;;;;;;;8.98;4.90;;;;;;;;;;4994759;28;20031;-79
2021/03/17 07:18:27;;;;;;;10.63;5.18;;;;;;;;;;4995727;28;20045;-78
2021/03/17 07:20:56;;;;;;;8.00;4.10;;;;;;;;;;4977776;28;20042;-77
2021/03/17 07:23:44;;;;;;;10.75;5.35;;;;;;;;;;4977615;28;20448;-77
2021/03/17 07:26:17;;;;;;;11.02;5.07;;;;;;;;;;4974087;28;20078;-77
2021/03/17 07:28:57;;;;;;;10.60;5.40;;;;;;;;;;4974600;28;20022;-76
2021/03/17 07:31:31;;;;;;;12.55;5.70;;;;;;;;;;4974504;28;20035;-77
2021/03/17 07:33:57;;;;;;;;;;;;;;;;;;4974576;28;20026;-77
2021/03/17 07:36:32;;;;;;;11.05;5.75;;;;;;;;;;4976203;28;19906;-76
2021/03/17 07:38:59;;;;;;;10.23;5.95;;;;;;;;;;4974299;28;20114;-77
2021/03/17 07:41:25;;;;;;;11.93;5.78;;;;;;;;;;4974431;28;20395;-76
2021/03/17 07:43:55;;;;;;;16.20;6.32;;;;;;;;;;4975827;28;20022;-76
2021/03/17 07:46:24;;;;;;;11.32;5.85;;;;;;;;;;4973742;28;20077;-76
2021/03/17 07:48:50;;;;;;;10.63;5.55;;;;;;;;;;4974227;28;20392;-76
2021/03/17 07:51:18;;;;;;;13.23;5.78;;;;;;;;;;4975567;28;20388;-77
2021/03/17 07:53:45;;;;;;;10.32;4.68;;;;;;;;;;4974078;28;20122;-76
2021/03/17 07:56:12;;;;;;;13.07;5.68;;;;;;;;;;4973982;28;20055;-78
2021/03/17 07:58:38;;;;;;;13.77;6.15;;;;;;;;;;4974507;28;20018;-77
2021/03/17 08:01:05;;;;;;;13.35;6.18;;;;;;;;;;4974171;28;20035;-77
2021/03/17 08:03:31;;;;;;;15.57;6.95;;;;;;;;;;4973633;28;20023;-77
2021/03/17 08:05:58;;;;;;;9.13;5.05;;;;;;;;;;4974334;28;20113;-77
2021/03/17 08:08:24;;;;;;;11.13;5.13;;;;;;;;;;4974508;28;20031;-77
2021/03/17 08:10:50;;;;;;;9.23;5.07;;;;;;;;;;4974147;28;20034;-76
2021/03/17 08:13:17;;;;;;;10.52;5.88;;;;;;;;;;4975576;28;20027;-76
2021/03/17 08:15:44;;;;;;;8.60;4.57;;;;;;;;;;4977456;28;20050;-76
2021/03/17 08:18:29;;;;;;;11.35;5.05;;;;;;;;;;4977571;28;20034;-76
2021/03/17 08:20:55;;;;;;;7.65;4.47;;;;;;;;;;4977371;28;20110;-78
2021/03/17 08:23:51;;;;;;;7.22;3.97;;;;;;;;;;4978203;28;20099;-77
2021/03/17 08:26:20;;;;;;;7.32;4.00;;;;;;;;;;4976448;28;20138;-78
2021/03/17 08:28:56;;;;;;;6.95;3.72;;;;;;;;;;4977343;28;20019;-77
2021/03/17 08:31:38;;;;;;;8.60;4.07;;;;;;;;;;4977204;28;20049;-77
2021/03/17 08:34:19;;;;;;;8.95;4.30;;;;;;;;;;4978467;28;20062;-77
2021/03/17 08:36:46;;;;;;;7.25;4.20;;;;;;;;;;4977632;28;20027;-78
2021/03/17 08:39:12;;;;;;;9.35;4.53;;;;;;;;;;4976675;28;20019;-78
2021/03/17 08:41:42;;;;;;;8.32;4.40;;;;;;;;;;4976994;28;20023;-77
2021/03/17 08:44:12;;;;;;;9.52;4.03;;;;;;;;;;4977549;28;20038;-75
2021/03/17 08:46:38;;;;;;;7.72;4.05;;;;;;;;;;4977007;28;20042;-78
2021/03/17 08:49:05;;;;;;;7.72;4.28;;;;;;;;;;4975010;28;20032;-78
2021/03/17 08:51:47;;;;;;;9.90;4.25;;;;;;;;;;4976791;28;20026;-78
2021/03/17 08:54:31;;;;;;;10.90;5.20;;;;;;;;;;4976861;28;20018;-77
2021/03/17 08:57:01;;;;;;;8.27;4.20;;;;;;;;;;4977173;28;20023;-78
2021/03/17 08:59:47;;;;;;;7.88;3.72;;;;;;;;;;4977006;28;20483;-79
2021/03/17 09:02:42;;;;;;;5.90;3.45;;;;;;;;;;4977355;28;20056;-78
2021/03/17 09:05:19;;;;;;;7.72;4.20;;;;;;;;;;4978248;28;20025;-78
2021/03/17 09:08:02;;;;;;;6.10;3.60;;;;;;;;;;4976712;28;20027;-78
2021/03/17 09:10:45;;;;;;;8.00;4.03;;;;;;;;;;4973241;28;20023;-76
2021/03/17 09:13:12;;;;;;;6.75;3.90;;;;;;;;;;4963184;28;20063;-77
2021/03/17 09:15:51;;;;;;;7.25;4.10;;;;;;;;;;4958712;29;20094;-78
2021/03/17 09:18:21;;;;;;;7.82;3.92;;;;;;;;;;4973146;28;20034;-76
2021/03/17 09:20:55;;;;;;;7.28;3.63;;;;;;;;;;4976677;28;20041;-78
2021/03/17 09:23:23;;;;;;;8.02;3.22;;;;;;;;;;4975709;28;20081;-77
2021/03/17 09:25:54;;;;;;;7.47;3.50;;;;;;;;;;4974609;28;20137;-78
2021/03/17 09:28:27;;;;;;;8.38;3.90;;;;;;;;;;4975963;28;20027;-77
2021/03/17 09:30:55;;;;;;;7.75;3.30;;;;;;;;;;4966995;28;20360;-77
2021/03/17 09:33:23;;;;;;;7.95;3.65;;;;;;;;;;4967450;28;20015;-77
2021/03/17 09:35:51;;;;;;;9.73;3.55;;;;;;;;;;4964694;28;20035;-76
2021/03/17 09:38:18;;;;;;;8.68;3.85;;;;;;;;;;4967522;28;20146;-77
2021/03/17 09:40:47;;;;;;;7.45;4.30;;;;;;;;;;4966209;28;20035;-78
2021/03/17 09:43:23;;;;;;;8.68;4.38;;;;;;;;;;4967074;28;20031;-76
2021/03/17 09:45:50;;;;;;;7.85;3.72;;;;;;;;;;4965418;28;20041;-76
2021/03/17 09:48:17;;;;;;;8.70;3.60;;;;;;;;;;4967207;28;20372;-76
2021/03/17 09:50:44;;;;;;;9.77;4.20;;;;;;;;;;4965502;28;20078;-76
2021/03/17 09:53:16;;;;;;;8.50;3.83;;;;;;;;;;4966175;28;20023;-77
2021/03/17 09:55:43;;;;;;;6.63;3.47;;;;;;;;;;4965382;28;20039;-77
2021/03/17 09:58:09;;;;;;;6.05;3.25;;;;;;;;;;4966979;28;20369;-77
2021/03/17 10:00:36;;;;;;;10.65;3.42;;;;;;;;;;4962790;28;20035;-78
2021/03/17 10:03:03;;;;;;;10.55;4.28;;;;;;;;;;4965263;28;20380;-77
2021/03/17 10:05:30;;;;;;;13.88;6.50;;;;;;;;;;4963089;28;20027;-78
2021/03/17 10:07:56;;;;;;;9.65;4.20;;;;;;;;;;4967572;28;20020;-76
2021/03/17 10:10:23;;;;;;;7.32;3.40;;;;;;;;;;4961056;28;20485;-77
2021/03/17 10:12:49;;;;;;;7.15;3.20;;;;;;;;;;4964310;28;20027;-77
2021/03/17 10:15:17;;;;;;;9.02;3.75;;;;;;;;;;4964478;28;20113;-76
2021/03/17 10:17:44;;;;;;;9.15;4.00;;;;;;;;;;4967393;28;20020;-76
2021/03/17 10:20:15;;;;;;;6.05;3.60;;;;;;;;;;4965717;28;20039;-77
2021/03/17 10:22:45;;;;;;;7.38;3.08;;;;;;;;;;4967017;28;20030;-77
2021/03/17 10:25:21;;;;;;;7.43;3.53;;;;;;;;;;4967451;28;20138;-76
2021/03/17 10:27:49;;;;;;;8.00;3.63;;;;;;;;;;4975997;28;20050;-77
2021/03/17 10:30:28;;;;;;;8.73;4.28;;;;;;;;;;4975958;28;20038;-77
2021/03/17 10:32:55;;;;;;;5.57;2.60;;;;;;;;;;4975166;28;20420;-85
2021/03/17 10:35:22;;;;;;;6.07;3.00;;;;;;;;;;4974952;28;20027;-85
2021/03/17 10:37:50;;;;;;;15.95;3.33;;;;;;;;;;4974979;28;20034;-88
2021/03/17 10:40:23;;;;;;;11.60;3.50;;;;;;;;;;4974991;28;20031;-76
2021/03/17 10:42:56;;;;;;;7.22;3.03;;;;;;;;;;4976611;28;20031;-83
2021/03/17 10:45:22;;;;;;;7.00;3.40;;;;;;;;;;4975143;28;20027;-77
2021/03/17 10:47:49;;;;;;;7.72;3.17;;;;;;;;;;4974707;28;20031;-77
2021/03/17 10:50:28;;;;;;;5.85;2.97;;;;;;;;;;4974575;28;20031;-77
2021/03/17 10:52:54;;;;;;;7.45;3.45;;;;;;;;;;4958120;28;20038;-78
2021/03/17 10:55:21;;;;;;;9.73;3.70;;;;;;;;;;4976213;28;20034;-77
2021/03/17 10:57:48;;;;;;;8.07;3.13;;;;;;;;;;4976831;28;20027;-77
2021/03/17 11:00:19;;;;;;;6.18;3.22;;;;;;;;;;4975595;28;20042;-78
2021/03/17 11:02:45;;;;;;;6.90;3.65;;;;;;;;;;4976552;28;20027;-78
2021/03/17 11:05:21;;;;;;;7.65;3.63;;;;;;;;;;4974211;28;20081;-78
2021/03/17 11:07:47;;;;;;;8.70;3.55;;;;;;;;;;4974129;28;20055;-77
2021/03/17 11:10:28;;;;;;;8.02;3.30;;;;;;;;;;4973717;28;20039;-78
2021/03/17 11:12:55;;;;;;;7.35;3.88;;;;;;;;;;4975211;28;20111;-78
2021/03/17 11:15:23;;;;;;;8.65;3.78;;;;;;;;;;4973916;28;20026;-78
2021/03/17 11:17:52;;;;;;;7.05;3.75;;;;;;;;;;4973798;28;20031;-77
2021/03/17 11:20:19;;;;;;;9.35;4.85;;;;;;;;;;4975599;28;20038;-76
2021/03/17 11:22:45;;;;;;;9.43;4.05;;;;;;;;;;4973887;28;20548;-77
2021/03/17 11:25:12;;;;;;;8.65;3.72;;;;;;;;;;4981953;28;20042;-77
2021/03/17 11:27:39;;;;;;;10.02;3.78;;;;;;;;;;4977025;28;20030;-77
2021/03/17 11:30:07;;;;;;;8.23;4.15;;;;;;;;;;4977564;28;20161;-77
2021/03/17 11:32:33;;;;;;;12.15;3.90;;;;;;;;;;4994901;28;20026;-78
2021/03/17 11:34:59;;;;;;;11.73;4.20;;;;;;;;;;4977917;28;20057;-78
2021/03/17 11:37:25;;;;;;;6.55;3.17;;;;;;;;;;4977590;28;20029;-78
2021/03/17 11:39:51;;;;;;;9.65;3.83;;;;;;;;;;4977355;28;20509;-78
2021/03/17 11:42:17;;;;;;;7.97;4.20;;;;;;;;;;4978123;28;20117;-80
2021/03/17 11:44:44;;;;;;;7.60;3.22;;;;;;;;;;4977223;28;20483;-77
2021/03/17 11:47:10;;;;;;;6.03;3.10;;;;;;;;;;4977102;28;20037;-77
2021/03/17 11:49:36;;;;;;;8.38;3.72;;;;;;;;;;4980625;28;20077;-80
2021/03/17 11:52:02;;;;;;;6.07;3.15;;;;;;;;;;4980881;28;20113;-81
2021/03/17 11:54:28;;;;;;;6.72;3.08;;;;;;;;;;4998776;28;20541;-77
2021/03/17 11:56:57;;;;;;;8.70;3.53;;;;;;;;;;4998468;28;20018;-76
2021/03/17 11:59:24;;;;;;;8.07;3.70;;;;;;;;;;4981027;28;20431;-77
2021/03/17 12:01:50;;;;;;;8.63;3.00;;;;;;;;;;4980998;28;20053;-77
2021/03/17 12:04:16;;;;;;;6.25;3.35;;;;;;;;;;4997909;28;20018;-77
2021/03/17 12:06:43;;;;;;;6.55;3.25;;;;;;;;;;4980107;28;20042;-76
2021/03/17 12:09:09;;;;;;;5.78;3.35;;;;;;;;;;4980850;28;20030;-76
2021/03/17 12:11:36;;;;;;;6.82;3.03;;;;;;;;;;4998262;28;20447;-76
2021/03/17 12:14:03;;;;;;;8.40;3.30;;;;;;;;;;4981250;28;20050;-77
2021/03/17 12:16:29;;;;;;;6.60;3.13;;;;;;;;;;4998319;28;20138;-77
2021/03/17 12:18:55;;;;;;;6.25;3.00;;;;;;;;;;4980407;28;20026;-77
2021/03/17 12:21:22;;;;;;;12.57;3.88;;;;;;;;;;4997668;28;20042;-76
2021/03/17 12:23:49;;;;;;;8.07;3.30;;;;;;;;;;4980653;28;20026;-77
2021/03/17 12:26:15;;;;;;;9.38;3.17;;;;;;;;;;4978899;28;20399;-78
2021/03/17 12:28:42;;;;;;;7.22;3.38;;;;;;;;;;4980564;28;20030;-78
2021/03/17 12:31:08;;;;;;;5.90;3.05;;;;;;;;;;4997786;28;20470;-78
2021/03/17 12:33:34;;;;;;;10.20;3.85;;;;;;;;;;4979746;28;20026;-77
2021/03/17 12:36:01;;;;;;;6.50;2.80;;;;;;;;;;4979651;28;20501;-77
2021/03/17 12:38:27;;;;;;;8.30;3.00;;;;;;;;;;4998205;28;20026;-77
2021/03/17 12:40:53;;;;;;;10.32;3.65;;;;;;;;;;4980073;28;20077;-78
2021/03/17 12:43:19;;;;;;;7.85;3.35;;;;;;;;;;4997922;28;20528;-76
2021/03/17 12:45:46;;;;;;;5.65;2.80;;;;;;;;;;4980612;28;20033;-76
2021/03/17 12:48:13;;;;;;;5.85;3.17;;;;;;;;;;4980891;28;20100;-81
2021/03/17 12:50:39;;;;;;;7.85;3.17;;;;;;;;;;4980514;28;20034;-77
2021/03/17 12:53:06;;;;;;;5.70;2.67;;;;;;;;;;4980034;28;20022;-83
2021/03/17 12:55:32;;;;;;;6.03;3.10;;;;;;;;;;4980631;28;20543;-77
2021/03/17 12:57:59;;;;;;;7.68;3.35;;;;;;;;;;4980689;28;20034;-81
2021/03/17 13:00:25;;;;;;;8.57;4.20;;;;;;;;;;4997493;28;20035;-79
2021/03/17 13:02:51;;;;;;;5.28;2.65;;;;;;;;;;4998006;28;20056;-77
2021/03/17 13:05:18;;;;;;;7.05;3.33;;;;;;;;;;4980239;28;20033;-77
2021/03/17 13:07:44;;;;;;;6.25;3.10;;;;;;;;;;4997056;28;20025;-77
2021/03/17 13:10:13;;;;;;;8.55;3.90;;;;;;;;;;4999435;28;20109;-78
2021/03/17 13:12:39;;;;;;;12.65;5.43;;;;;;;;;;4980394;28;20018;-78
2021/03/17 13:15:06;;;;;;;6.68;3.47;;;;;;;;;;4978027;28;20050;-78
2021/03/17 13:17:33;;;;;;;11.02;4.18;;;;;;;;;;4986160;28;20361;-78
2021/03/17 13:20:00;;;;;;;7.25;3.65;;;;;;;;;;4985593;28;20097;-79
2021/03/17 13:22:26;;;;;;;6.72;3.22;;;;;;;;;;4985734;28;20023;-77
2021/03/17 13:24:52;;;;;;;7.47;3.78;;;;;;;;;;4975928;28;20060;-77
2021/03/17 13:27:18;;;;;;;8.18;3.72;;;;;;;;;;4978705;28;20022;-79
2021/03/17 13:29:44;;;;;;;8.45;3.85;;;;;;;;;;4978155;28;20076;-77
2021/03/17 13:32:10;;;;;;;7.40;3.22;;;;;;;;;;4977577;28;20026;-78
2021/03/17 13:34:36;;;;;;;7.20;3.22;;;;;;;;;;4976179;28;20050;-81
2021/03/17 13:37:03;;;;;;;7.35;4.18;;;;;;;;;;4976331;28;20126;-76
2021/03/17 13:39:29;;;;;;;9.18;4.38;;;;;;;;;;4976160;28;20128;-78
2021/03/17 13:41:55;;;;;;;9.63;4.30;;;;;;;;;;4976394;28;20039;-77
2021/03/17 13:44:21;;;;;;;10.40;5.38;;;;;;;;;;4976035;28;20033;-79
2021/03/17 13:46:47;;;;;;;9.13;4.53;;;;;;;;;;4977938;28;20035;-77
2021/03/17 13:49:13;;;;;;;10.68;4.40;;;;;;;;;;4975161;28;20023;-78
2021/03/17 13:51:39;;;;;;;10.52;3.45;;;;;;;;;;4975572;28;20039;-78
2021/03/17 13:54:05;;;;;;;7.75;3.78;;;;;;;;;;4977077;28;20074;-77
2021/03/17 13:56:32;;;;;;;8.32;3.60;;;;;;;;;;4975484;28;20035;-76
2021/03/17 13:58:58;;;;;;;9.85;4.00;;;;;;;;;;4975474;28;20101;-78
2021/03/17 14:01:24;;;;;;;7.97;3.90;;;;;;;;;;4975295;28;20081;-78
2021/03/17 14:03:50;;;;;;;7.32;4.10;;;;;;;;;;4975159;28;20077;-77
2021/03/17 14:06:16;;;;;;;10.52;4.68;;;;;;;;;;4976110;28;20027;-77
2021/03/17 14:08:42;;;;;;;8.18;3.90;;;;;;;;;;4976589;28;20022;-77
2021/03/17 14:11:08;;;;;;;11.02;4.72;;;;;;;;;;4974838;28;20023;-79
2021/03/17 14:13:34;;;;;;;8.43;4.55;;;;;;;;;;4975395;28;20129;-77
2021/03/17 14:16:01;;;;;;;8.05;3.88;;;;;;;;;;4974947;28;20469;-77
2021/03/17 14:18:27;;;;;;;9.38;4.38;;;;;;;;;;4975136;28;20432;-77
2021/03/17 14:20:54;;;;;;;8.10;3.90;;;;;;;;;;4978135;28;20414;-76
2021/03/17 14:23:20;;;;;;;10.63;4.95;;;;;;;;;;4995922;28;20421;-77
2021/03/17 14:25:46;;;;;;;7.65;4.50;;;;;;;;;;4977926;28;20054;-77
2021/03/17 14:28:12;;;;;;;8.63;4.55;;;;;;;;;;4978028;28;20430;-77
2021/03/17 14:30:39;;;;;;;8.90;4.10;;;;;;;;;;4996082;28;20030;-75
2021/03/17 14:33:05;;;;;;;10.85;3.95;;;;;;;;;;4978793;28;20060;-75
2021/03/17 14:35:32;;;;;;;10.18;3.72;;;;;;;;;;4977981;28;20062;-75
2021/03/17 14:37:58;;;;;;;11.48;3.67;;;;;;;;;;4978489;28;20034;-77
2021/03/17 14:40:24;;;;;;;7.70;3.63;;;;;;;;;;4978279;28;20045;-77
2021/03/17 14:42:50;;;;;;;8.20;3.40;;;;;;;;;;4996135;28;20494;-77
2021/03/17 14:45:17;;;;;;;6.90;3.30;;;;;;;;;;4978248;28;20033;-77